createdAt,value
2019-05-07T00:00:46.935Z,934.84
2019-05-07T00:01:46.927Z,934.81
2019-05-07T00:02:46.908Z,934.78
2019-05-07T00:03:46.908Z,934.79
2019-05-07T00:04:46.920Z,934.78
2019-05-07T00:05:46.910Z,934.78
2019-05-07T00:06:46.879Z,934.78
2019-05-07T00:07:46.911Z,934.78
2019-05-07T00:08:46.888Z,934.79
2019-05-07T00:09:46.891Z,934.82
2019-05-07T00:10:46.886Z,934.77
2019-05-07T00:11:46.883Z,934.75
2019-05-07T00:12:46.876Z,934.75
2019-05-07T00:13:46.864Z,934.69
2019-05-07T00:14:58.139Z,934.72
2019-05-07T00:15:46.842Z,934.68
2019-05-07T00:16:46.828Z,934.69
2019-05-07T00:17:46.854Z,934.72
2019-05-07T00:18:46.830Z,934.79
2019-05-07T00:19:46.817Z,934.79
2019-05-07T00:20:46.819Z,934.80
2019-05-07T00:21:46.807Z,934.83
2019-05-07T00:22:46.855Z,934.81
2019-05-07T00:23:46.786Z,934.82
2019-05-07T00:24:46.801Z,934.84
2019-05-07T00:25:46.824Z,934.83
2019-05-07T00:26:46.789Z,934.82
2019-05-07T00:27:46.815Z,934.81
2019-05-07T00:28:46.771Z,934.77
2019-05-07T00:29:46.773Z,934.80
2019-05-07T00:30:46.777Z,934.83
2019-05-07T00:31:46.753Z,934.82
2019-05-07T00:32:46.740Z,934.83
2019-05-07T00:33:46.771Z,934.86
2019-05-07T00:34:46.727Z,934.82
2019-05-07T00:35:46.730Z,934.84
2019-05-07T00:36:46.747Z,934.83
2019-05-07T00:37:46.734Z,934.79
2019-05-07T00:38:46.733Z,934.81
2019-05-07T00:39:46.727Z,934.75
2019-05-07T00:40:46.716Z,934.78
2019-05-07T00:41:46.704Z,934.81
2019-05-07T00:42:46.760Z,934.77
2019-05-07T00:43:46.717Z,934.74
2019-05-07T00:44:46.679Z,934.79
2019-05-07T00:45:46.705Z,934.79
2019-05-07T00:46:46.695Z,934.76
2019-05-07T00:47:46.668Z,934.78
2019-05-07T00:48:46.663Z,934.77
2019-05-07T00:49:46.685Z,934.77
2019-05-07T00:50:46.647Z,934.80
2019-05-07T00:51:46.660Z,934.79
2019-05-07T00:52:46.654Z,934.84
2019-05-07T00:53:46.669Z,934.83
2019-05-07T00:54:46.675Z,934.93
2019-05-07T00:55:46.651Z,934.89
2019-05-07T00:56:46.612Z,934.89
2019-05-07T00:57:46.663Z,934.92
2019-05-07T00:58:46.616Z,934.94
2019-05-07T00:59:46.612Z,934.95
2019-05-07T01:00:46.615Z,934.94
2019-05-07T01:01:46.579Z,934.99
2019-05-07T01:02:46.576Z,934.95
2019-05-07T01:03:46.635Z,935.01
2019-05-07T01:04:46.578Z,934.98
2019-05-07T01:05:46.584Z,935.02
2019-05-07T01:06:46.620Z,935.03
2019-05-07T01:07:46.560Z,935.03
2019-05-07T01:08:46.581Z,935.04
2019-05-07T01:09:46.560Z,935.02
2019-05-07T01:10:46.544Z,935.03
2019-05-07T01:11:46.532Z,935.01
2019-05-07T01:12:46.549Z,935.02
2019-05-07T01:13:46.523Z,935.05
2019-05-07T01:14:46.569Z,935.07
2019-05-07T01:15:46.537Z,935.10
2019-05-07T01:16:46.501Z,935.13
2019-05-07T01:17:46.497Z,935.15
2019-05-07T01:18:46.495Z,935.17
2019-05-07T01:19:46.509Z,935.16
2019-05-07T01:20:46.489Z,935.17
2019-05-07T01:21:46.478Z,935.22
2019-05-07T01:22:46.471Z,935.22
2019-05-07T01:23:46.449Z,935.24
2019-05-07T01:24:46.462Z,935.18
2019-05-07T01:25:46.469Z,935.18
2019-05-07T01:26:46.441Z,935.12
2019-05-07T01:27:46.495Z,935.14
2019-05-07T01:28:46.461Z,935.11
2019-05-07T01:29:46.433Z,935.11
2019-05-07T01:30:46.414Z,935.10
2019-05-07T01:31:46.401Z,935.08
2019-05-07T01:32:46.462Z,935.12
2019-05-07T01:33:46.417Z,935.13
2019-05-07T01:34:46.384Z,935.14
2019-05-07T01:35:46.412Z,935.14
2019-05-07T01:36:46.401Z,935.11
2019-05-07T01:37:46.379Z,935.14
2019-05-07T01:38:46.372Z,935.10
2019-05-07T01:39:46.369Z,935.10
2019-05-07T01:40:46.376Z,935.10
2019-05-07T01:41:46.367Z,935.08
2019-05-07T01:42:46.397Z,935.07
2019-05-07T01:43:46.359Z,935.05
2019-05-07T01:44:46.356Z,935.06
2019-05-07T01:45:49.584Z,935.07
2019-05-07T01:46:46.331Z,935.06
2019-05-07T01:47:46.337Z,935.01
2019-05-07T01:48:46.336Z,935.03
2019-05-07T01:49:46.307Z,935.00
2019-05-07T01:50:46.302Z,935.02
2019-05-07T01:51:46.294Z,935.01
2019-05-07T01:52:46.285Z,935.04
2019-05-07T01:53:46.290Z,935.05
2019-05-07T01:54:47.465Z,935.07
2019-05-07T01:55:46.299Z,935.06
2019-05-07T01:56:46.277Z,935.05
2019-05-07T01:57:46.266Z,935.04
2019-05-07T01:58:46.251Z,935.03
2019-05-07T01:59:46.252Z,935.02
2019-05-07T02:00:46.256Z,934.99
2019-05-07T02:01:46.282Z,934.98
2019-05-07T02:02:46.280Z,935.01
2019-05-07T02:03:46.270Z,935.00
2019-05-07T02:04:46.238Z,935.03
2019-05-07T02:05:46.233Z,935.01
2019-05-07T02:06:46.219Z,935.02
2019-05-07T02:07:46.196Z,934.99
2019-05-07T02:08:46.233Z,935.02
2019-05-07T02:09:46.236Z,935.01
2019-05-07T02:10:46.176Z,935.02
2019-05-07T02:11:46.198Z,935.03
2019-05-07T02:12:46.244Z,935.03
2019-05-07T02:13:46.158Z,935.05
2019-05-07T02:14:46.149Z,935.06
2019-05-07T02:15:57.198Z,935.09
2019-05-07T02:16:46.169Z,935.02
2019-05-07T02:17:46.157Z,935.03
2019-05-07T02:18:46.143Z,935.03
2019-05-07T02:19:46.156Z,935.00
2019-05-07T02:20:46.127Z,934.99
2019-05-07T02:21:46.130Z,934.96
2019-05-07T02:22:46.127Z,934.99
2019-05-07T02:23:46.146Z,934.98
2019-05-07T02:24:46.111Z,934.98
2019-05-07T02:25:46.112Z,934.99
2019-05-07T02:26:46.094Z,934.99
2019-05-07T02:27:46.101Z,934.95
2019-05-07T02:28:46.099Z,934.96
2019-05-07T02:29:46.056Z,934.94
2019-05-07T02:30:46.068Z,934.94
2019-05-07T02:31:46.060Z,934.96
2019-05-07T02:32:46.057Z,934.95
2019-05-07T02:33:46.058Z,934.97
2019-05-07T02:34:46.043Z,934.96
2019-05-07T02:35:46.034Z,934.92
2019-05-07T02:36:46.022Z,934.90
2019-05-07T02:37:50.876Z,934.90
2019-05-07T02:38:46.037Z,934.84
2019-05-07T02:39:46.002Z,934.82
2019-05-07T02:40:45.997Z,934.78
2019-05-07T02:41:46.040Z,934.76
2019-05-07T02:42:46.003Z,934.76
2019-05-07T02:43:45.995Z,934.74
2019-05-07T02:44:45.982Z,934.71
2019-05-07T02:45:45.965Z,934.74
2019-05-07T02:46:45.995Z,934.69
2019-05-07T02:47:45.944Z,934.70
2019-05-07T02:48:45.959Z,934.75
2019-05-07T02:49:45.968Z,934.75
2019-05-07T02:50:45.951Z,934.76
2019-05-07T02:51:45.953Z,934.80
2019-05-07T02:52:45.938Z,934.83
2019-05-07T02:53:45.920Z,934.84
2019-05-07T02:54:45.934Z,934.87
2019-05-07T02:55:45.922Z,934.93
2019-05-07T02:56:45.900Z,934.92
2019-05-07T02:57:45.901Z,934.96
2019-05-07T02:58:45.911Z,934.97
2019-05-07T02:59:45.897Z,935.01
2019-05-07T03:00:45.888Z,934.99
2019-05-07T03:01:45.891Z,934.97
2019-05-07T03:02:45.877Z,934.99
2019-05-07T03:03:45.867Z,935.02
2019-05-07T03:04:45.837Z,935.06
2019-05-07T03:05:45.852Z,934.99
2019-05-07T03:06:45.854Z,935.06
2019-05-07T03:07:45.842Z,935.09
2019-05-07T03:08:45.844Z,935.11
2019-05-07T03:09:45.808Z,935.08
2019-05-07T03:10:45.817Z,935.09
2019-05-07T03:11:45.829Z,935.12
2019-05-07T03:12:45.855Z,935.15
2019-05-07T03:13:45.794Z,935.13
2019-05-07T03:14:45.795Z,935.15
2019-05-07T03:15:45.811Z,935.15
2019-05-07T03:16:49.490Z,935.14
2019-05-07T03:17:45.756Z,935.10
2019-05-07T03:18:45.771Z,935.07
2019-05-07T03:19:45.782Z,935.04
2019-05-07T03:20:45.757Z,935.02
2019-05-07T03:21:45.755Z,935.01
2019-05-07T03:22:45.753Z,935.02
2019-05-07T03:23:45.727Z,934.98
2019-05-07T03:24:45.736Z,935.05
2019-05-07T03:25:45.717Z,935.05
2019-05-07T03:26:45.734Z,935.07
2019-05-07T03:27:45.752Z,935.13
2019-05-07T03:28:45.747Z,935.13
2019-05-07T03:29:45.696Z,935.16
2019-05-07T03:30:46.126Z,935.16
2019-05-07T03:31:47.086Z,935.17
2019-05-07T03:32:47.548Z,935.17
2019-05-07T03:33:47.105Z,935.23
2019-05-07T03:34:47.021Z,935.22
2019-05-07T03:35:47.004Z,935.21
2019-05-07T03:36:47.503Z,935.21
2019-05-07T03:37:45.671Z,935.23
2019-05-07T03:38:45.650Z,935.27
2019-05-07T03:39:45.605Z,935.27
2019-05-07T03:40:45.632Z,935.25
2019-05-07T03:41:45.618Z,935.27
2019-05-07T03:42:45.618Z,935.27
2019-05-07T03:43:45.601Z,935.24
2019-05-07T03:44:45.595Z,935.28
2019-05-07T03:45:45.568Z,935.29
2019-05-07T03:47:01.338Z,935.22
2019-05-07T03:47:45.547Z,935.25
2019-05-07T03:48:45.617Z,935.25
2019-05-07T03:49:45.572Z,935.32
2019-05-07T03:50:45.606Z,935.32
2019-05-07T03:51:45.555Z,935.33
2019-05-07T03:52:45.525Z,935.34
2019-05-07T03:53:45.539Z,935.35
2019-05-07T03:54:45.512Z,935.37
2019-05-07T03:55:45.509Z,935.38
2019-05-07T03:56:45.519Z,935.39
2019-05-07T03:57:45.493Z,935.39
2019-05-07T03:58:45.502Z,935.41
2019-05-07T03:59:45.484Z,935.45
2019-05-07T04:00:45.495Z,935.44
2019-05-07T04:01:45.457Z,935.45
2019-05-07T04:02:45.483Z,935.42
2019-05-07T04:03:45.468Z,935.45
2019-05-07T04:04:45.496Z,935.46
2019-05-07T04:05:45.504Z,935.51
2019-05-07T04:06:45.452Z,935.48
2019-05-07T04:07:45.482Z,935.48
2019-05-07T04:08:45.423Z,935.49
2019-05-07T04:09:45.415Z,935.45
2019-05-07T04:10:45.458Z,935.43
2019-05-07T04:11:45.389Z,935.39
2019-05-07T04:12:45.387Z,935.35
2019-05-07T04:13:45.385Z,935.33
2019-05-07T04:14:45.365Z,935.30
2019-05-07T04:15:45.427Z,935.34
2019-05-07T04:16:45.390Z,935.33
2019-05-07T04:17:45.355Z,935.30
2019-05-07T04:18:45.362Z,935.33
2019-05-07T04:19:45.355Z,935.29
2019-05-07T04:20:45.401Z,935.31
2019-05-07T04:21:45.339Z,935.25
2019-05-07T04:22:45.332Z,935.28
2019-05-07T04:23:45.307Z,935.29
2019-05-07T04:24:45.360Z,935.26
2019-05-07T04:25:45.363Z,935.24
2019-05-07T04:26:45.292Z,935.20
2019-05-07T04:27:47.160Z,935.22
2019-05-07T04:28:45.303Z,935.17
2019-05-07T04:29:45.279Z,935.19
2019-05-07T04:30:45.333Z,935.19
2019-05-07T04:31:45.271Z,935.18
2019-05-07T04:32:45.274Z,935.18
2019-05-07T04:33:45.242Z,935.16
2019-05-07T04:34:45.275Z,935.11
2019-05-07T04:35:45.270Z,935.10
2019-05-07T04:36:45.228Z,935.06
2019-05-07T04:37:45.224Z,935.06
2019-05-07T04:38:45.221Z,935.07
2019-05-07T04:39:45.207Z,935.11
2019-05-07T04:40:45.302Z,935.06
2019-05-07T04:41:45.198Z,935.08
2019-05-07T04:42:45.218Z,935.06
2019-05-07T04:43:45.202Z,935.04
2019-05-07T04:44:45.161Z,935.00
2019-05-07T04:45:45.219Z,934.97
2019-05-07T04:46:48.269Z,934.93
2019-05-07T04:47:47.752Z,934.92
2019-05-07T04:48:45.151Z,934.87
2019-05-07T04:49:45.139Z,934.82
2019-05-07T04:50:47.948Z,934.85
2019-05-07T04:51:45.130Z,934.79
2019-05-07T04:52:45.109Z,934.77
2019-05-07T04:53:45.105Z,934.71
2019-05-07T04:54:45.106Z,934.77
2019-05-07T04:55:45.071Z,934.69
2019-05-07T04:56:45.106Z,934.76
2019-05-07T04:57:45.071Z,934.73
2019-05-07T04:58:45.074Z,934.76
2019-05-07T04:59:45.065Z,934.80
2019-05-07T05:00:45.042Z,934.77
2019-05-07T05:01:45.094Z,934.87
2019-05-07T05:02:45.048Z,934.93
2019-05-07T05:03:45.053Z,934.98
2019-05-07T05:04:45.028Z,935.00
2019-05-07T05:05:44.995Z,935.00
2019-05-07T05:06:45.010Z,935.01
2019-05-07T05:07:45.013Z,935.06
2019-05-07T05:08:44.995Z,935.08
2019-05-07T05:09:44.979Z,935.11
2019-05-07T05:10:44.957Z,935.06
2019-05-07T05:11:45.009Z,935.09
2019-05-07T05:12:45.010Z,935.18
2019-05-07T05:13:45.050Z,935.11
2019-05-07T05:14:44.982Z,935.16
2019-05-07T05:15:44.936Z,935.11
2019-05-07T05:16:44.926Z,935.15
2019-05-07T05:17:50.021Z,935.13
2019-05-07T05:18:44.916Z,935.21
2019-05-07T05:19:44.917Z,935.12
2019-05-07T05:20:44.910Z,935.18
2019-05-07T05:21:44.888Z,935.20
2019-05-07T05:22:44.874Z,935.21
2019-05-07T05:23:44.897Z,935.20
2019-05-07T05:24:44.876Z,935.22
2019-05-07T05:25:44.854Z,935.16
2019-05-07T05:26:44.859Z,935.10
2019-05-07T05:27:44.851Z,935.10
2019-05-07T05:28:44.849Z,935.12
2019-05-07T05:29:44.842Z,935.02
2019-05-07T05:30:44.810Z,935.04
2019-05-07T05:31:44.817Z,935.01
2019-05-07T05:32:44.822Z,935.06
2019-05-07T05:33:44.831Z,935.07
2019-05-07T05:34:44.798Z,935.06
2019-05-07T05:35:44.795Z,935.04
2019-05-07T05:36:44.785Z,935.06
2019-05-07T05:37:44.787Z,935.03
2019-05-07T05:38:44.766Z,934.99
2019-05-07T05:39:44.766Z,934.92
2019-05-07T05:40:44.727Z,934.93
2019-05-07T05:41:44.756Z,934.93
2019-05-07T05:42:44.740Z,934.94
2019-05-07T05:43:44.728Z,934.97
2019-05-07T05:44:44.735Z,934.95
2019-05-07T05:45:44.719Z,934.98
2019-05-07T05:46:44.702Z,934.98
2019-05-07T05:47:44.973Z,934.91
2019-05-07T05:48:44.679Z,934.96
2019-05-07T05:49:44.683Z,934.95
2019-05-07T05:50:44.680Z,934.97
2019-05-07T05:51:44.655Z,934.98
2019-05-07T05:52:44.645Z,935.08
2019-05-07T05:53:44.649Z,935.10
2019-05-07T05:54:44.632Z,935.11
2019-05-07T05:55:44.619Z,935.11
2019-05-07T05:56:44.608Z,935.12
2019-05-07T05:57:44.655Z,935.15
2019-05-07T05:58:44.609Z,935.15
2019-05-07T05:59:51.297Z,935.12
2019-05-07T06:00:44.609Z,935.15
2019-05-07T06:01:44.582Z,935.16
2019-05-07T06:02:44.560Z,935.14
2019-05-07T06:03:44.585Z,935.13
2019-05-07T06:04:44.563Z,935.15
2019-05-07T06:05:44.538Z,935.06
2019-05-07T06:06:44.555Z,935.07
2019-05-07T06:07:44.521Z,935.05
2019-05-07T06:08:44.578Z,935.02
2019-05-07T06:09:44.527Z,934.93
2019-05-07T06:10:44.515Z,934.90
2019-05-07T06:11:44.522Z,934.88
2019-05-07T06:12:44.493Z,934.81
2019-05-07T06:13:44.544Z,934.80
2019-05-07T06:14:44.471Z,934.79
2019-05-07T06:15:44.473Z,934.76
2019-05-07T06:16:44.485Z,934.78
2019-05-07T06:17:44.464Z,934.76
2019-05-07T06:18:44.454Z,934.81
2019-05-07T06:19:44.435Z,934.77
2019-05-07T06:20:44.440Z,934.78
2019-05-07T06:21:44.425Z,934.78
2019-05-07T06:22:44.435Z,934.77
2019-05-07T06:23:44.403Z,934.76
2019-05-07T06:24:44.405Z,934.78
2019-05-07T06:25:44.400Z,934.77
2019-05-07T06:26:44.370Z,934.76
2019-05-07T06:27:44.539Z,934.79
2019-05-07T06:28:44.364Z,934.82
2019-05-07T06:29:44.376Z,934.79
2019-05-07T06:30:44.375Z,934.84
2019-05-07T06:31:44.364Z,934.81
2019-05-07T06:32:44.310Z,934.84
2019-05-07T06:33:44.335Z,934.89
2019-05-07T06:34:44.786Z,934.88
2019-05-07T06:35:44.322Z,934.90
2019-05-07T06:36:44.306Z,934.99
2019-05-07T06:37:44.303Z,934.95
2019-05-07T06:38:44.298Z,934.95
2019-05-07T06:39:44.284Z,934.93
2019-05-07T06:40:44.294Z,934.93
2019-05-07T06:41:44.321Z,934.95
2019-05-07T06:42:44.256Z,934.97
2019-05-07T06:43:44.293Z,934.99
2019-05-07T06:44:44.258Z,934.98
2019-05-07T06:45:44.230Z,934.98
2019-05-07T06:46:44.276Z,934.91
2019-05-07T06:47:44.231Z,934.96
2019-05-07T06:48:46.178Z,934.95
2019-05-07T06:49:44.221Z,934.95
2019-05-07T06:50:44.187Z,934.99
2019-05-07T06:51:44.194Z,934.97
2019-05-07T06:52:44.190Z,934.95
2019-05-07T06:53:44.164Z,934.99
2019-05-07T06:54:44.180Z,934.97
2019-05-07T06:55:44.174Z,934.98
2019-05-07T06:56:44.190Z,934.96
2019-05-07T06:57:44.147Z,934.96
2019-05-07T06:58:44.181Z,934.98
2019-05-07T06:59:44.140Z,934.91
2019-05-07T07:00:44.100Z,934.92
2019-05-07T07:01:44.112Z,934.92
2019-05-07T07:02:44.082Z,934.92
2019-05-07T07:03:44.105Z,934.93
2019-05-07T07:04:44.080Z,934.95
2019-05-07T07:05:44.090Z,934.94
2019-05-07T07:06:44.060Z,934.91
2019-05-07T07:07:44.072Z,934.91
2019-05-07T07:08:44.070Z,934.94
2019-05-07T07:09:44.048Z,934.93
2019-05-07T07:10:44.065Z,934.97
2019-05-07T07:11:44.057Z,934.94
2019-05-07T07:12:44.050Z,934.93
2019-05-07T07:13:44.021Z,934.93
2019-05-07T07:14:44.029Z,934.92
2019-05-07T07:15:44.005Z,934.95
2019-05-07T07:16:43.991Z,934.96
2019-05-07T07:17:43.991Z,934.97
2019-05-07T07:18:51.912Z,934.96
2019-05-07T07:19:43.986Z,934.94
2019-05-07T07:20:43.962Z,934.92
2019-05-07T07:21:43.961Z,934.93
2019-05-07T07:22:43.931Z,934.98
2019-05-07T07:23:43.947Z,934.94
2019-05-07T07:24:43.924Z,934.96
2019-05-07T07:25:43.913Z,934.95
2019-05-07T07:26:43.920Z,934.92
2019-05-07T07:27:43.923Z,934.92
2019-05-07T07:28:43.915Z,934.92
2019-05-07T07:29:45.036Z,934.88
2019-05-07T07:30:43.896Z,934.89
2019-05-07T07:31:43.883Z,934.85
2019-05-07T07:32:43.868Z,934.89
2019-05-07T07:33:43.853Z,934.88
2019-05-07T07:34:43.848Z,934.84
2019-05-07T07:35:43.861Z,934.87
2019-05-07T07:36:43.850Z,934.89
2019-05-07T07:37:43.826Z,934.90
2019-05-07T07:38:43.816Z,934.89
2019-05-07T07:39:43.855Z,934.92
2019-05-07T07:40:43.802Z,934.92
2019-05-07T07:41:43.812Z,934.87
2019-05-07T07:42:43.781Z,934.90
2019-05-07T07:43:43.793Z,934.89
2019-05-07T07:44:43.773Z,934.87
2019-05-07T07:45:43.769Z,934.89
2019-05-07T07:46:43.760Z,934.82
2019-05-07T07:47:43.767Z,934.83
2019-05-07T07:48:43.746Z,934.80
2019-05-07T07:49:43.726Z,934.82
2019-05-07T07:50:43.713Z,934.83
2019-05-07T07:51:45.634Z,934.89
2019-05-07T07:52:43.758Z,934.88
2019-05-07T07:53:43.700Z,934.83
2019-05-07T07:54:43.714Z,934.80
2019-05-07T07:55:43.682Z,934.85
2019-05-07T07:56:52.756Z,934.84
2019-05-07T07:57:43.674Z,934.81
2019-05-07T07:58:43.664Z,934.80
2019-05-07T07:59:43.672Z,934.80
2019-05-07T08:00:43.651Z,934.78
2019-05-07T08:01:43.638Z,934.79
2019-05-07T08:02:43.639Z,934.78
2019-05-07T08:03:43.638Z,934.71
2019-05-07T08:04:43.620Z,934.70
2019-05-07T08:05:43.610Z,934.69
2019-05-07T08:06:43.624Z,934.70
2019-05-07T08:07:43.583Z,934.65
2019-05-07T08:08:43.611Z,934.64
2019-05-07T08:09:43.569Z,934.62
2019-05-07T08:10:43.542Z,934.56
2019-05-07T08:11:43.555Z,934.57
2019-05-07T08:12:43.556Z,934.59
2019-05-07T08:13:43.581Z,934.60
2019-05-07T08:14:43.566Z,934.58
2019-05-07T08:15:43.508Z,934.55
2019-05-07T08:16:43.519Z,934.53
2019-05-07T08:17:43.507Z,934.50
2019-05-07T08:18:43.754Z,934.49
2019-05-07T08:19:43.546Z,934.51
2019-05-07T08:20:43.480Z,934.46
2019-05-07T08:21:43.484Z,934.50
2019-05-07T08:22:43.480Z,934.51
2019-05-07T08:23:43.472Z,934.52
2019-05-07T08:24:43.451Z,934.53
2019-05-07T08:25:43.472Z,934.55
2019-05-07T08:26:43.418Z,934.56
2019-05-07T08:27:43.421Z,934.56
2019-05-07T08:28:43.436Z,934.51
2019-05-07T08:29:43.419Z,934.48
2019-05-07T08:30:43.420Z,934.47
2019-05-07T08:31:43.412Z,934.45
2019-05-07T08:32:43.406Z,934.41
2019-05-07T08:33:43.386Z,934.44
2019-05-07T08:34:43.374Z,934.43
2019-05-07T08:35:43.364Z,934.43
2019-05-07T08:36:43.359Z,934.45
2019-05-07T08:37:43.358Z,934.45
2019-05-07T08:38:43.329Z,934.46
2019-05-07T08:39:43.376Z,934.44
2019-05-07T08:40:43.321Z,934.46
2019-05-07T08:41:43.312Z,934.45
2019-05-07T08:42:43.325Z,934.43
2019-05-07T08:43:43.293Z,934.45
2019-05-07T08:44:43.297Z,934.45
2019-05-07T08:45:43.372Z,934.44
2019-05-07T08:46:43.264Z,934.43
2019-05-07T08:47:43.259Z,934.45
2019-05-07T08:48:43.239Z,934.38
2019-05-07T08:49:43.589Z,934.40
2019-05-07T08:50:43.262Z,934.41
2019-05-07T08:51:43.234Z,934.40
2019-05-07T08:52:43.213Z,934.35
2019-05-07T08:53:43.196Z,934.37
2019-05-07T08:54:43.211Z,934.35
2019-05-07T08:55:43.203Z,934.33
2019-05-07T08:56:43.252Z,934.31
2019-05-07T08:57:45.812Z,934.28
2019-05-07T08:58:43.162Z,934.25
2019-05-07T08:59:57.191Z,934.24
2019-05-07T09:00:43.146Z,934.16
2019-05-07T09:01:43.446Z,934.12
2019-05-07T09:02:43.144Z,934.09
2019-05-07T09:03:43.310Z,934.06
2019-05-07T09:04:43.138Z,934.02
2019-05-07T09:05:43.140Z,934.03
2019-05-07T09:06:43.233Z,933.97
2019-05-07T09:07:43.102Z,933.96
2019-05-07T09:08:43.658Z,933.98
2019-05-07T09:09:43.104Z,933.92
2019-05-07T09:10:43.092Z,933.89
2019-05-07T09:11:43.069Z,933.85
2019-05-07T09:12:43.088Z,933.80
2019-05-07T09:13:43.055Z,933.74
2019-05-07T09:14:43.097Z,933.73
2019-05-07T09:15:43.051Z,933.75
2019-05-07T09:16:43.031Z,933.73
2019-05-07T09:17:43.024Z,933.76
2019-05-07T09:18:43.022Z,933.77
2019-05-07T09:19:50.870Z,933.78
2019-05-07T09:20:42.993Z,933.79
2019-05-07T09:21:43.108Z,933.76
2019-05-07T09:22:43.019Z,933.78
2019-05-07T09:23:42.967Z,933.83
2019-05-07T09:24:42.965Z,933.80
2019-05-07T09:25:42.946Z,933.79
2019-05-07T09:26:42.966Z,933.82
2019-05-07T09:27:42.919Z,933.80
2019-05-07T09:28:42.945Z,933.82
2019-05-07T09:29:42.921Z,933.86
2019-05-07T09:30:42.925Z,933.92
2019-05-07T09:31:42.895Z,933.95
2019-05-07T09:32:42.914Z,933.99
2019-05-07T09:33:42.895Z,934.10
2019-05-07T09:34:42.899Z,934.11
2019-05-07T09:35:42.879Z,934.19
2019-05-07T09:36:42.929Z,934.22
2019-05-07T09:37:42.885Z,934.27
2019-05-07T09:38:55.213Z,934.29
2019-05-07T09:39:42.845Z,934.38
2019-05-07T09:40:42.846Z,934.45
2019-05-07T09:41:42.823Z,934.48
2019-05-07T09:42:42.834Z,934.55
2019-05-07T09:43:42.807Z,934.53
2019-05-07T09:44:42.799Z,934.56
2019-05-07T09:45:42.780Z,934.55
2019-05-07T09:46:43.931Z,934.57
2019-05-07T09:47:42.802Z,934.60
2019-05-07T09:48:42.790Z,934.63
2019-05-07T09:49:42.793Z,934.69
2019-05-07T09:50:42.913Z,934.68
2019-05-07T09:51:42.809Z,934.68
2019-05-07T09:52:42.845Z,934.74
2019-05-07T09:53:42.780Z,934.75
2019-05-07T09:54:42.944Z,934.78
2019-05-07T09:55:42.758Z,934.83
2019-05-07T09:56:42.755Z,934.86
2019-05-07T09:57:42.711Z,934.92
2019-05-07T09:58:42.745Z,935.00
2019-05-07T09:59:42.706Z,935.02
2019-05-07T10:00:42.698Z,935.03
2019-05-07T10:01:42.670Z,935.04
2019-05-07T10:02:42.705Z,935.07
2019-05-07T10:03:43.017Z,935.06
2019-05-07T10:04:42.634Z,935.09
2019-05-07T10:05:42.947Z,935.10
2019-05-07T10:06:42.636Z,935.09
2019-05-07T10:07:42.608Z,935.11
2019-05-07T10:08:42.667Z,935.10
2019-05-07T10:09:42.729Z,935.11
2019-05-07T10:10:42.642Z,935.10
2019-05-07T10:11:42.593Z,935.10
2019-05-07T10:12:42.590Z,935.09
2019-05-07T10:13:42.586Z,935.16
2019-05-07T10:14:42.574Z,935.14
2019-05-07T10:15:42.558Z,935.17
2019-05-07T10:16:42.563Z,935.17
2019-05-07T10:17:42.544Z,935.18
2019-05-07T10:18:42.743Z,935.21
2019-05-07T10:19:42.519Z,935.20
2019-05-07T10:20:42.520Z,935.23
2019-05-07T10:21:42.591Z,935.24
2019-05-07T10:22:42.837Z,935.22
2019-05-07T10:23:42.540Z,935.25
2019-05-07T10:24:42.511Z,935.26
2019-05-07T10:25:42.470Z,935.23
2019-05-07T10:26:42.852Z,935.25
2019-05-07T10:27:42.485Z,935.24
2019-05-07T10:28:42.570Z,935.25
2019-05-07T10:29:42.802Z,935.24
2019-05-07T10:30:42.783Z,935.28
2019-05-07T10:31:42.508Z,935.29
2019-05-07T10:32:42.454Z,935.33
2019-05-07T10:33:42.419Z,935.35
2019-05-07T10:34:42.421Z,935.32
2019-05-07T10:35:43.466Z,935.35
2019-05-07T10:36:42.385Z,935.34
2019-05-07T10:37:42.507Z,935.39
2019-05-07T10:38:42.381Z,935.42
2019-05-07T10:39:43.016Z,935.41
2019-05-07T10:40:42.364Z,935.41
2019-05-07T10:41:42.569Z,935.42
2019-05-07T10:42:43.022Z,935.39
2019-05-07T10:43:42.872Z,935.43
2019-05-07T10:44:43.277Z,935.41
2019-05-07T10:45:42.334Z,935.43
2019-05-07T10:46:42.355Z,935.46
2019-05-07T10:47:42.347Z,935.44
2019-05-07T10:48:42.354Z,935.45
2019-05-07T10:49:42.313Z,935.45
2019-05-07T10:50:42.519Z,935.46
2019-05-07T10:51:42.563Z,935.47
2019-05-07T10:52:42.488Z,935.47
2019-05-07T10:53:42.525Z,935.47
2019-05-07T10:54:42.274Z,935.48
2019-05-07T10:55:45.256Z,935.46
2019-05-07T10:56:42.234Z,935.48
2019-05-07T10:57:42.370Z,935.42
2019-05-07T10:58:42.218Z,935.49
2019-05-07T10:59:42.303Z,935.47
2019-05-07T11:00:42.248Z,935.45
2019-05-07T11:01:42.539Z,935.48
2019-05-07T11:02:42.597Z,935.45
2019-05-07T11:03:42.188Z,935.48
2019-05-07T11:04:43.586Z,935.46
2019-05-07T11:05:42.163Z,935.50
2019-05-07T11:06:42.168Z,935.52
2019-05-07T11:07:42.324Z,935.54
2019-05-07T11:08:42.867Z,935.57
2019-05-07T11:09:42.133Z,935.61
2019-05-07T11:10:42.184Z,935.63
2019-05-07T11:11:42.322Z,935.64
2019-05-07T11:12:42.492Z,935.66
2019-05-07T11:13:42.284Z,935.73
2019-05-07T11:14:42.167Z,935.67
2019-05-07T11:15:42.897Z,935.68
2019-05-07T11:16:43.046Z,935.71
2019-05-07T11:17:42.059Z,935.77
2019-05-07T11:18:42.627Z,935.76
2019-05-07T11:19:42.076Z,935.73
2019-05-07T11:20:49.687Z,935.72
2019-05-07T11:21:42.033Z,935.77
2019-05-07T11:22:42.871Z,935.71
2019-05-07T11:23:42.042Z,935.74
2019-05-07T11:24:42.700Z,935.81
2019-05-07T11:25:42.163Z,935.83
2019-05-07T11:26:42.102Z,935.85
2019-05-07T11:27:42.212Z,935.88
2019-05-07T11:28:41.982Z,935.85
2019-05-07T11:29:42.960Z,935.91
2019-05-07T11:30:42.513Z,935.87
2019-05-07T11:31:42.486Z,935.90
2019-05-07T11:32:42.970Z,935.92
2019-05-07T11:33:41.949Z,935.94
2019-05-07T11:34:42.213Z,935.96
2019-05-07T11:35:42.320Z,935.98
2019-05-07T11:36:42.956Z,935.98
2019-05-07T11:37:44.113Z,935.99
2019-05-07T11:38:44.550Z,936.01
2019-05-07T11:39:42.765Z,935.99
2019-05-07T11:40:42.671Z,936.01
2019-05-07T11:41:42.271Z,936.04
2019-05-07T11:42:42.669Z,936.06
2019-05-07T11:43:41.893Z,936.07
2019-05-07T11:44:42.396Z,936.12
2019-05-07T11:45:41.850Z,936.15
2019-05-07T11:46:44.410Z,936.12
2019-05-07T11:47:41.869Z,936.10
2019-05-07T11:48:42.614Z,936.10
2019-05-07T11:49:41.849Z,936.16
2019-05-07T11:50:42.247Z,936.15
2019-05-07T11:51:42.591Z,936.16
2019-05-07T11:52:42.523Z,936.22
2019-05-07T11:53:41.922Z,936.22
2019-05-07T11:54:42.181Z,936.20
2019-05-07T11:55:42.146Z,936.22
2019-05-07T11:56:42.207Z,936.19
2019-05-07T11:57:44.216Z,936.21
2019-05-07T11:58:41.759Z,936.24
2019-05-07T11:59:41.858Z,936.23
2019-05-07T12:00:42.654Z,936.24
2019-05-07T12:01:46.921Z,936.24
2019-05-07T12:02:42.364Z,936.27
2019-05-07T12:03:42.910Z,936.30
2019-05-07T12:04:42.211Z,936.30
2019-05-07T12:05:42.241Z,936.29
2019-05-07T12:06:41.711Z,936.32
2019-05-07T12:07:41.933Z,936.30
2019-05-07T12:08:48.229Z,936.31
2019-05-07T12:09:41.689Z,936.28
2019-05-07T12:10:42.074Z,936.33
2019-05-07T12:11:42.574Z,936.34
2019-05-07T12:12:41.661Z,936.34
2019-05-07T12:13:42.748Z,936.35
2019-05-07T12:14:41.661Z,936.34
2019-05-07T12:15:42.871Z,936.36
2019-05-07T12:16:42.632Z,936.36
2019-05-07T12:17:42.923Z,936.39
2019-05-07T12:18:43.075Z,936.38
2019-05-07T12:19:43.746Z,936.41
2019-05-07T12:20:41.638Z,936.42
2019-05-07T12:21:42.300Z,936.43
2019-05-07T12:22:42.447Z,936.42
2019-05-07T12:23:42.213Z,936.40
2019-05-07T12:24:41.927Z,936.40
2019-05-07T12:25:42.368Z,936.39
2019-05-07T12:26:41.960Z,936.39
2019-05-07T12:27:41.547Z,936.38
2019-05-07T12:28:41.863Z,936.38